sensor_id;sensor_type;location;lat;lon;timestamp;pressure;altitude;pressure_sealevel;temperature;humidity
63654;BME280;49809;47.418;19.080;2022-12-20T00:03:20;102371.31;;;-3.26;100.00
63654;BME280;49809;47.418;19.080;2022-12-20T00:06:41;102376.84;;;-3.19;100.00
63654;BME280;49809;47.418;19.080;2022-12-20T00:10:20;102378.41;;;-3.17;100.00
63654;BME280;49809;47.418;19.080;2022-12-20T00:13:56;102387.22;;;-3.19;100.00
63654;BME280;49809;47.418;19.080;2022-12-20T00:18:02;102396.09;;;-3.11;100.00
63654;BME280;49809;47.418;19.080;2022-12-20T00:21:44;102395.44;;;-3.01;100.00
63654;BME280;49809;47.418;19.080;2022-12-20T00:25:17;102395.97;;;-2.74;100.00
63654;BME280;49809;47.418;19.080;2022-12-20T00:28:51;102399.06;;;-2.69;100.00
63654;BME280;49809;47.418;19.080;2022-12-20T00:32:20;102409.91;;;-2.64;100.00
63654;BME280;49809;47.418;19.080;2022-12-20T00:36:29;102399.56;;;-2.64;100.00
63654;BME280;49809;47.418;19.080;2022-12-20T00:40:37;102391.31;;;-2.47;100.00
63654;BME280;49809;47.418;19.080;2022-12-20T00:44:23;102387.78;;;-2.46;100.00
63654;BME280;49809;47.418;19.080;2022-12-20T00:47:47;102380.59;;;-2.53;100.00
63654;BME280;49809;47.418;19.080;2022-12-20T00:51:53;102378.00;;;-2.53;100.00
63654;BME280;49809;47.418;19.080;2022-12-20T00:55:46;102366.13;;;-2.34;100.00
63654;BME280;49809;47.418;19.080;2022-12-20T00:59:14;102351.50;;;-2.35;100.00
63654;BME280;49809;47.418;19.080;2022-12-20T01:03:18;102348.19;;;-2.26;100.00
63654;BME280;49809;47.418;19.080;2022-12-20T01:07:28;102342.06;;;-2.47;100.00
63654;BME280;49809;47.418;19.080;2022-12-20T01:11:19;102349.13;;;-2.49;100.00
63654;BME280;49809;47.418;19.080;2022-12-20T01:14:54;102340.19;;;-2.45;100.00
63654;BME280;49809;47.418;19.080;2022-12-20T01:18:29;102342.78;;;-2.45;100.00
63654;BME280;49809;47.418;19.080;2022-12-20T01:22:07;102343.59;;;-2.44;100.00
63654;BME280;49809;47.418;19.080;2022-12-20T01:25:43;102334.75;;;-2.42;100.00
63654;BME280;49809;47.418;19.080;2022-12-20T01:29:27;102326.16;;;-2.42;100.00
63654;BME280;49809;47.418;19.080;2022-12-20T01:32:44;102334.63;;;-2.51;100.00
63654;BME280;49809;47.418;19.080;2022-12-20T01:36:10;102335.69;;;-2.65;100.00
63654;BME280;49809;47.418;19.080;2022-12-20T01:39:49;102328.50;;;-2.50;100.00
63654;BME280;49809;47.418;19.080;2022-12-20T01:43:59;102319.09;;;-2.40;100.00
63654;BME280;49809;47.418;19.080;2022-12-20T01:52:29;102296.09;;;-2.56;100.00
63654;BME280;49809;47.418;19.080;2022-12-20T01:55:55;102285.50;;;-2.53;100.00
63654;BME280;49809;47.418;19.080;2022-12-20T01:59:54;102287.03;;;-2.50;100.00
63654;BME280;49809;47.418;19.080;2022-12-20T02:03:26;102283.59;;;-2.40;100.00
63654;BME280;49809;47.418;19.080;2022-12-20T02:07:02;102272.66;;;-2.43;100.00
63654;BME280;49809;47.418;19.080;2022-12-20T02:11:27;102260.25;;;-2.40;100.00
63654;BME280;49809;47.418;19.080;2022-12-20T02:15:31;102251.91;;;-2.43;100.00
63654;BME280;49809;47.418;19.080;2022-12-20T02:30:48;102234.84;;;-2.57;100.00
63654;BME280;49809;47.418;19.080;2022-12-20T02:34:15;102242.59;;;-2.57;100.00
63654;BME280;49809;47.418;19.080;2022-12-20T02:37:56;102245.41;;;-2.60;100.00
63654;BME280;49809;47.418;19.080;2022-12-20T02:41:37;102244.13;;;-2.77;100.00
63654;BME280;49809;47.418;19.080;2022-12-20T02:45:15;102249.88;;;-2.84;100.00
63654;BME280;49809;47.418;19.080;2022-12-20T02:49:00;102244.69;;;-2.84;100.00
63654;BME280;49809;47.418;19.080;2022-12-20T02:52:33;102254.47;;;-2.88;100.00
63654;BME280;49809;47.418;19.080;2022-12-20T02:56:46;102253.87;;;-3.02;100.00
63654;BME280;49809;47.418;19.080;2022-12-20T03:00:10;102248.22;;;-2.85;100.00
63654;BME280;49809;47.418;19.080;2022-12-20T03:03:45;102242.47;;;-2.78;100.00
63654;BME280;49809;47.418;19.080;2022-12-20T03:07:28;102234.72;;;-2.67;100.00
63654;BME280;49809;47.418;19.080;2022-12-20T03:10:53;102228.56;;;-2.54;100.00
63654;BME280;49809;47.418;19.080;2022-12-20T03:14:33;102225.03;;;-2.53;100.00
63654;BME280;49809;47.418;19.080;2022-12-20T03:18:02;102217.47;;;-2.45;100.00
63654;BME280;49809;47.418;19.080;2022-12-20T03:21:41;102204.41;;;-2.44;100.00
63654;BME280;49809;47.418;19.080;2022-12-20T03:25:13;102215.81;;;-2.46;100.00
63654;BME280;49809;47.418;19.080;2022-12-20T03:28:34;102212.19;;;-2.44;100.00
63654;BME280;49809;47.418;19.080;2022-12-20T03:32:09;102198.12;;;-2.30;100.00
63654;BME280;49809;47.418;19.080;2022-12-20T03:35:43;102187.41;;;-2.37;100.00
63654;BME280;49809;47.418;19.080;2022-12-20T03:39:16;102190.00;;;-2.37;100.00
63654;BME280;49809;47.418;19.080;2022-12-20T03:43:14;102182.81;;;-2.44;100.00
63654;BME280;49809;47.418;19.080;2022-12-20T03:46:31;102198.75;;;-2.49;100.00
63654;BME280;49809;47.418;19.080;2022-12-20T03:50:08;102198.03;;;-2.51;100.00
63654;BME280;49809;47.418;19.080;2022-12-20T03:53:42;102201.81;;;-2.55;100.00
63654;BME280;49809;47.418;19.080;2022-12-20T03:57:21;102206.41;;;-2.58;100.00
63654;BME280;49809;47.418;19.080;2022-12-20T04:00:55;102201.38;;;-2.71;100.00
63654;BME280;49809;47.418;19.080;2022-12-20T04:04:31;102188.50;;;-2.84;100.00
63654;BME280;49809;47.418;19.080;2022-12-20T04:08:09;102199.72;;;-2.83;100.00
63654;BME280;49809;47.418;19.080;2022-12-20T04:11:28;102201.59;;;-2.96;100.00
63654;BME280;49809;47.418;19.080;2022-12-20T04:14:54;102198.75;;;-2.93;100.00
63654;BME280;49809;47.418;19.080;2022-12-20T04:18:17;102180.88;;;-2.96;100.00
63654;BME280;49809;47.418;19.080;2022-12-20T04:21:51;102181.44;;;-2.93;100.00
63654;BME280;49809;47.418;19.080;2022-12-20T04:25:30;102169.56;;;-3.07;100.00
63654;BME280;49809;47.418;19.080;2022-12-20T04:29:02;102168.13;;;-2.88;100.00
63654;BME280;49809;47.418;19.080;2022-12-20T04:32:34;102154.00;;;-2.84;100.00
63654;BME280;49809;47.418;19.080;2022-12-20T04:36:11;102148.59;;;-2.81;100.00
63654;BME280;49809;47.418;19.080;2022-12-20T04:39:43;102142.09;;;-2.76;100.00
63654;BME280;49809;47.418;19.080;2022-12-20T04:43:12;102154.72;;;-2.71;100.00
63654;BME280;49809;47.418;19.080;2022-12-20T04:50:07;102143.72;;;-2.64;100.00
63654;BME280;49809;47.418;19.080;2022-12-20T04:53:41;102142.44;;;-2.58;100.00
63654;BME280;49809;47.418;19.080;2022-12-20T04:57:17;102135.69;;;-2.60;100.00
63654;BME280;49809;47.418;19.080;2022-12-20T05:00:52;102141.72;;;-2.60;100.00
63654;BME280;49809;47.418;19.080;2022-12-20T05:04:30;102161.53;;;-2.70;100.00
63654;BME280;49809;47.418;19.080;2022-12-20T05:08:07;102168.72;;;-2.62;100.00
63654;BME280;49809;47.418;19.080;2022-12-20T05:11:41;102171.16;;;-2.50;100.00
63654;BME280;49809;47.418;19.080;2022-12-20T05:15:20;102165.41;;;-2.65;100.00
63654;BME280;49809;47.418;19.080;2022-12-20T05:18:52;102178.94;;;-2.61;100.00
63654;BME280;49809;47.418;19.080;2022-12-20T05:22:08;102186.41;;;-2.68;100.00
63654;BME280;49809;47.418;19.080;2022-12-20T05:26:07;102183.22;;;-2.71;100.00
63654;BME280;49809;47.418;19.080;2022-12-20T05:29:48;102175.19;;;-2.57;100.00
63654;BME280;49809;47.418;19.080;2022-12-20T05:33:27;102185.56;;;-2.68;100.00
63654;BME280;49809;47.418;19.080;2022-12-20T05:36:59;102185.81;;;-2.71;100.00
63654;BME280;49809;47.418;19.080;2022-12-20T05:40:35;102175.41;;;-2.60;100.00
63654;BME280;49809;47.418;19.080;2022-12-20T05:44:10;102183.91;;;-2.58;100.00
63654;BME280;49809;47.418;19.080;2022-12-20T05:47:48;102186.75;;;-2.72;100.00
63654;BME280;49809;47.418;19.080;2022-12-20T05:51:28;102189.09;;;-2.69;100.00
63654;BME280;49809;47.418;19.080;2022-12-20T05:54:58;102179.56;;;-2.80;100.00
63654;BME280;49809;47.418;19.080;2022-12-20T05:58:34;102181.78;;;-2.64;100.00
63654;BME280;49809;47.418;19.080;2022-12-20T06:02:04;102174.47;;;-2.59;100.00
63654;BME280;49809;47.418;19.080;2022-12-20T06:05:37;102171.16;;;-2.61;100.00
63654;BME280;49809;47.418;19.080;2022-12-20T06:08:57;102166.81;;;-2.60;100.00
63654;BME280;49809;47.418;19.080;2022-12-20T06:12:33;102159.66;;;-2.68;100.00
63654;BME280;49809;47.418;19.080;2022-12-20T06:16:08;102149.03;;;-2.65;100.00
63654;BME280;49809;47.418;19.080;2022-12-20T06:19:44;102142.44;;;-2.69;100.00
63654;BME280;49809;47.418;19.080;2022-12-20T06:23:25;102142.69;;;-2.72;100.00
63654;BME280;49809;47.418;19.080;2022-12-20T06:26:50;102141.97;;;-2.74;100.00
63654;BME280;49809;47.418;19.080;2022-12-20T06:30:21;102141.50;;;-2.90;100.00
63654;BME280;49809;47.418;19.080;2022-12-20T06:33:56;102141.66;;;-2.92;100.00
63654;BME280;49809;47.418;19.080;2022-12-20T06:37:33;102134.00;;;-2.93;100.00
63654;BME280;49809;47.418;19.080;2022-12-20T06:41:14;102134.00;;;-2.93;100.00
63654;BME280;49809;47.418;19.080;2022-12-20T06:44:49;102140.56;;;-2.89;100.00
63654;BME280;49809;47.418;19.080;2022-12-20T06:48:17;102133.62;;;-2.89;100.00
63654;BME280;49809;47.418;19.080;2022-12-20T06:51:42;102132.81;;;-2.89;100.00
63654;BME280;49809;47.418;19.080;2022-12-20T06:55:17;102140.25;;;-2.96;100.00
63654;BME280;49809;47.418;19.080;2022-12-20T06:59:16;102129.16;;;-2.87;100.00
63654;BME280;49809;47.418;19.080;2022-12-20T07:03:03;102124.19;;;-2.79;100.00
63654;BME280;49809;47.418;19.080;2022-12-20T07:06:43;102122.91;;;-2.73;100.00
63654;BME280;49809;47.418;19.080;2022-12-20T07:10:00;102114.19;;;-2.72;100.00
63654;BME280;49809;47.418;19.080;2022-12-20T07:13:30;102109.41;;;-2.56;100.00
63654;BME280;49809;47.418;19.080;2022-12-20T07:17:07;102116.03;;;-2.52;100.00
63654;BME280;49809;47.418;19.080;2022-12-20T07:21:06;102115.16;;;-2.41;100.00
63654;BME280;49809;47.418;19.080;2022-12-20T07:24:27;102101.03;;;-2.37;100.00
63654;BME280;49809;47.418;19.080;2022-12-20T07:27:59;102099.94;;;-2.35;100.00
63654;BME280;49809;47.418;19.080;2022-12-20T07:31:27;102101.59;;;-2.34;100.00
63654;BME280;49809;47.418;19.080;2022-12-20T07:35:10;102116.59;;;-2.16;100.00
63654;BME280;49809;47.418;19.080;2022-12-20T07:38:16;102115.53;;;-2.14;100.00
63654;BME280;49809;47.418;19.080;2022-12-20T07:41:46;102111.09;;;-2.02;100.00
63654;BME280;49809;47.418;19.080;2022-12-20T07:45:09;102116.97;;;-1.89;100.00
63654;BME280;49809;47.418;19.080;2022-12-20T07:48:29;102111.25;;;-1.83;100.00
63654;BME280;49809;47.418;19.080;2022-12-20T07:52:04;102108.97;;;-1.77;100.00
63654;BME280;49809;47.418;19.080;2022-12-20T07:55:41;102108.34;;;-1.69;99.76
63654;BME280;49809;47.418;19.080;2022-12-20T07:59:17;102106.00;;;-1.51;98.61
63654;BME280;49809;47.418;19.080;2022-12-20T08:03:17;102114.28;;;-1.57;98.13
63654;BME280;49809;47.418;19.080;2022-12-20T08:06:51;102100.22;;;-1.55;98.93
63654;BME280;49809;47.418;19.080;2022-12-20T08:10:30;102101.78;;;-1.43;97.93
63654;BME280;49809;47.418;19.080;2022-12-20T08:14:12;102098.37;;;-1.43;97.79
63654;BME280;49809;47.418;19.080;2022-12-20T08:17:46;102084.03;;;-1.38;97.51
63654;BME280;49809;47.418;19.080;2022-12-20T08:21:21;102077.91;;;-1.37;97.29
63654;BME280;49809;47.418;19.080;2022-12-20T08:25:06;102079.28;;;-1.33;96.43
63654;BME280;49809;47.418;19.080;2022-12-20T08:28:33;102072.94;;;-1.40;96.44
63654;BME280;49809;47.418;19.080;2022-12-20T08:31:59;102071.88;;;-1.37;96.48
63654;BME280;49809;47.418;19.080;2022-12-20T08:35:22;102069.69;;;-1.42;97.00
63654;BME280;49809;47.418;19.080;2022-12-20T08:38:39;102071.56;;;-1.44;97.64
63654;BME280;49809;47.418;19.080;2022-12-20T08:42:18;102079.00;;;-1.29;97.04
63654;BME280;49809;47.418;19.080;2022-12-20T08:45:50;102066.88;;;-1.19;96.19
63654;BME280;49809;47.418;19.080;2022-12-20T08:49:26;102067.87;;;-1.01;95.19
63654;BME280;49809;47.418;19.080;2022-12-20T08:52:45;102066.53;;;-0.96;94.78
63654;BME280;49809;47.418;19.080;2022-12-20T08:56:13;102064.91;;;-0.87;94.59
63654;BME280;49809;47.418;19.080;2022-12-20T08:59:46;102067.66;;;-0.89;94.24
63654;BME280;49809;47.418;19.080;2022-12-20T09:03:09;102052.62;;;-0.85;93.63
63654;BME280;49809;47.418;19.080;2022-12-20T09:06:59;102054.00;;;-0.81;93.48
63654;BME280;49809;47.418;19.080;2022-12-20T09:10:30;102058.25;;;-0.70;93.63
63654;BME280;49809;47.418;19.080;2022-12-20T09:14:21;102056.91;;;-0.65;92.68
63654;BME280;49809;47.418;19.080;2022-12-20T09:17:39;102058.41;;;-0.53;92.37
63654;BME280;49809;47.418;19.080;2022-12-20T09:20:43;102073.75;;;-0.50;91.84
63654;BME280;49809;47.418;19.080;2022-12-20T09:24:27;102070.31;;;-0.40;92.09
63654;BME280;49809;47.418;19.080;2022-12-20T09:27:57;102058.81;;;-0.28;91.19
63654;BME280;49809;47.418;19.080;2022-12-20T09:31:42;102055.12;;;-0.16;90.72
63654;BME280;49809;47.418;19.080;2022-12-20T09:35:09;102054.72;;;-0.21;89.68
63654;BME280;49809;47.418;19.080;2022-12-20T09:38:44;102058.13;;;-0.11;89.12
63654;BME280;49809;47.418;19.080;2022-12-20T09:42:13;102040.31;;;-0.06;89.61
63654;BME280;49809;47.418;19.080;2022-12-20T09:45:51;102023.97;;;0.11;88.75
63654;BME280;49809;47.418;19.080;2022-12-20T09:49:48;102007.88;;;0.25;87.75
63654;BME280;49809;47.418;19.080;2022-12-20T10:01:59;102006.97;;;0.44;86.68
63654;BME280;49809;47.418;19.080;2022-12-20T10:05:55;101997.16;;;0.38;87.48
63654;BME280;49809;47.418;19.080;2022-12-20T10:25:20;101987.75;;;0.82;84.25
63654;BME280;49809;47.418;19.080;2022-12-20T10:28:52;101972.97;;;0.73;84.05
63654;BME280;49809;47.418;19.080;2022-12-20T10:32:27;101973.28;;;0.87;83.61
63654;BME280;49809;47.418;19.080;2022-12-20T10:44:28;101936.13;;;1.03;81.60
63654;BME280;49809;47.418;19.080;2022-12-20T10:53:02;101925.91;;;1.45;80.79
63654;BME280;49809;47.418;19.080;2022-12-20T10:56:33;101919.59;;;1.82;79.19
63654;BME280;49809;47.418;19.080;2022-12-20T11:00:27;101913.69;;;2.05;78.19
63654;BME280;49809;47.418;19.080;2022-12-20T11:04:20;101913.72;;;2.55;76.02
63654;BME280;49809;47.418;19.080;2022-12-20T11:08:16;101904.28;;;2.71;75.29
63654;BME280;49809;47.418;19.080;2022-12-20T11:11:59;101887.75;;;2.54;75.19
63654;BME280;49809;47.418;19.080;2022-12-20T11:15:19;101896.81;;;2.26;74.78
63654;BME280;49809;47.418;19.080;2022-12-20T11:19:00;101883.41;;;2.29;76.19
63654;BME280;49809;47.418;19.080;2022-12-20T11:35:00;101849.88;;;2.98;72.48
63654;BME280;49809;47.418;19.080;2022-12-20T11:51:46;101851.09;;;2.38;76.08
63654;BME280;49809;47.418;19.080;2022-12-20T11:55:36;101841.25;;;2.24;75.64
63654;BME280;49809;47.418;19.080;2022-12-20T12:03:24;101829.41;;;2.53;76.15
63654;BME280;49809;47.418;19.080;2022-12-20T12:07:58;101830.75;;;2.82;75.55
63654;BME280;49809;47.418;19.080;2022-12-20T12:11:30;101831.75;;;2.89;73.92
63654;BME280;49809;47.418;19.080;2022-12-20T12:18:58;101818.16;;;2.61;74.39
63654;BME280;49809;47.418;19.080;2022-12-20T12:23:34;101817.50;;;2.51;75.70
63654;BME280;49809;47.418;19.080;2022-12-20T12:27:02;101818.12;;;2.53;75.47
63654;BME280;49809;47.418;19.080;2022-12-20T12:30:45;101806.37;;;2.97;73.82
63654;BME280;49809;47.418;19.080;2022-12-20T12:35:12;101801.66;;;3.09;73.26
63654;BME280;49809;47.418;19.080;2022-12-20T12:46:34;101796.25;;;2.86;73.19
63654;BME280;49809;47.418;19.080;2022-12-20T12:50:32;101788.41;;;2.62;74.12
63654;BME280;49809;47.418;19.080;2022-12-20T12:54:44;101778.63;;;2.64;73.81
63654;BME280;49809;47.418;19.080;2022-12-20T12:58:30;101778.59;;;2.48;75.28
63654;BME280;49809;47.418;19.080;2022-12-20T13:05:38;101779.91;;;2.36;75.41
63654;BME280;49809;47.418;19.080;2022-12-20T13:09:35;101785.87;;;2.04;76.91
63654;BME280;49809;47.418;19.080;2022-12-20T13:13:22;101787.22;;;2.16;76.46
63654;BME280;49809;47.418;19.080;2022-12-20T13:16:46;101779.72;;;2.21;76.21
63654;BME280;49809;47.418;19.080;2022-12-20T13:20:24;101778.22;;;2.02;77.21
63654;BME280;49809;47.418;19.080;2022-12-20T13:32:50;101769.37;;;2.03;77.35
63654;BME280;49809;47.418;19.080;2022-12-20T13:36:34;101755.31;;;1.88;78.27
63654;BME280;49809;47.418;19.080;2022-12-20T13:40:19;101747.84;;;2.01;78.00
63654;BME280;49809;47.418;19.080;2022-12-20T13:44:00;101755.13;;;1.82;79.19
63654;BME280;49809;47.418;19.080;2022-12-20T13:47:44;101758.72;;;1.81;78.76
63654;BME280;49809;47.418;19.080;2022-12-20T13:51:17;101757.03;;;1.63;80.08
63654;BME280;49809;47.418;19.080;2022-12-20T13:55:07;101741.38;;;1.71;79.45
63654;BME280;49809;47.418;19.080;2022-12-20T13:59:12;101744.47;;;1.67;79.70
63654;BME280;49809;47.418;19.080;2022-12-20T14:02:43;101736.28;;;1.54;79.96
63654;BME280;49809;47.418;19.080;2022-12-20T14:06:10;101732.72;;;1.63;80.47
63654;BME280;49809;47.418;19.080;2022-12-20T14:09:34;101718.13;;;1.44;81.20
63654;BME280;49809;47.418;19.080;2022-12-20T14:12:44;101718.91;;;1.37;81.29
63654;BME280;49809;47.418;19.080;2022-12-20T14:16:19;101711.28;;;1.51;80.95
63654;BME280;49809;47.418;19.080;2022-12-20T14:19:24;101709.78;;;1.41;81.16
63654;BME280;49809;47.418;19.080;2022-12-20T14:23:11;101711.41;;;1.42;81.26
63654;BME280;49809;47.418;19.080;2022-12-20T14:26:47;101712.03;;;1.36;81.59
63654;BME280;49809;47.418;19.080;2022-12-20T14:30:35;101715.78;;;1.33;81.72
63654;BME280;49809;47.418;19.080;2022-12-20T14:37:59;101696.50;;;0.92;84.12
63654;BME280;49809;47.418;19.080;2022-12-20T14:41:36;101691.97;;;0.94;83.83
63654;BME280;49809;47.418;19.080;2022-12-20T14:49:20;101672.97;;;0.76;83.82
63654;BME280;49809;47.418;19.080;2022-12-20T14:52:40;101675.94;;;0.81;83.75
63654;BME280;49809;47.418;19.080;2022-12-20T14:56:03;101670.28;;;0.68;84.31
63654;BME280;49809;47.418;19.080;2022-12-20T15:00:14;101667.06;;;0.74;83.86
63654;BME280;49809;47.418;19.080;2022-12-20T15:03:34;101676.12;;;0.62;84.80
63654;BME280;49809;47.418;19.080;2022-12-20T15:07:28;101672.84;;;0.60;87.28
63654;BME280;49809;47.418;19.080;2022-12-20T15:14:41;101683.97;;;0.44;89.85
63654;BME280;49809;47.418;19.080;2022-12-20T15:18:14;101684.03;;;0.34;91.29
63654;BME280;49809;47.418;19.080;2022-12-20T15:21:55;101675.78;;;0.39;91.75
63654;BME280;49809;47.418;19.080;2022-12-20T15:25:19;101678.03;;;0.34;92.32
63654;BME280;49809;47.418;19.080;2022-12-20T15:28:55;101674.53;;;0.25;92.92
63654;BME280;49809;47.418;19.080;2022-12-20T15:32:45;101673.87;;;0.23;93.07
63654;BME280;49809;47.418;19.080;2022-12-20T15:36:37;101673.34;;;0.20;93.60
63654;BME280;49809;47.418;19.080;2022-12-20T15:44:21;101682.50;;;0.06;94.25
63654;BME280;49809;47.418;19.080;2022-12-20T15:48:26;101692.47;;;0.11;94.60
63654;BME280;49809;47.418;19.080;2022-12-20T15:51:53;101692.91;;;0.06;94.81
63654;BME280;49809;47.418;19.080;2022-12-20T15:55:24;101701.63;;;-0.03;95.19
63654;BME280;49809;47.418;19.080;2022-12-20T15:58:59;101699.72;;;-0.01;95.27
63654;BME280;49809;47.418;19.080;2022-12-20T16:03:04;101693.38;;;0.02;95.21
63654;BME280;49809;47.418;19.080;2022-12-20T16:06:54;101690.00;;;-0.09;95.64
63654;BME280;49809;47.418;19.080;2022-12-20T16:10:20;101691.53;;;-0.06;95.85
63654;BME280;49809;47.418;19.080;2022-12-20T16:13:49;101694.25;;;-0.08;95.78
63654;BME280;49809;47.418;19.080;2022-12-20T16:17:23;101701.94;;;-0.06;95.87
63654;BME280;49809;47.418;19.080;2022-12-20T16:21:49;101693.75;;;-0.11;96.06
63654;BME280;49809;47.418;19.080;2022-12-20T16:25:43;101700.88;;;-0.13;96.08
63654;BME280;49809;47.418;19.080;2022-12-20T16:29:19;101693.38;;;-0.16;96.63
63654;BME280;49809;47.418;19.080;2022-12-20T16:32:53;101688.81;;;-0.14;96.52
63654;BME280;49809;47.418;19.080;2022-12-20T16:36:39;101689.12;;;-0.17;96.61
63654;BME280;49809;47.418;19.080;2022-12-20T16:40:29;101680.34;;;-0.16;96.64
63654;BME280;49809;47.418;19.080;2022-12-20T16:44:21;101674.84;;;-0.13;96.12
63654;BME280;49809;47.418;19.080;2022-12-20T16:48:29;101670.97;;;-0.09;96.45
63654;BME280;49809;47.418;19.080;2022-12-20T16:52:16;101664.44;;;-0.13;96.63
63654;BME280;49809;47.418;19.080;2022-12-20T16:56:10;101665.25;;;-0.13;96.59
63654;BME280;49809;47.418;19.080;2022-12-20T16:59:56;101670.84;;;-0.25;97.10
63654;BME280;49809;47.418;19.080;2022-12-20T17:03:25;101666.47;;;-0.25;97.44
63654;BME280;49809;47.418;19.080;2022-12-20T17:06:50;101669.19;;;-0.26;97.53
63654;BME280;49809;47.418;19.080;2022-12-20T17:10:35;101669.06;;;-0.25;97.69
63654;BME280;49809;47.418;19.080;2022-12-20T17:18:12;101643.25;;;-0.18;96.94
63654;BME280;49809;47.418;19.080;2022-12-20T17:21:55;101641.00;;;-0.13;96.65
63654;BME280;49809;47.418;19.080;2022-12-20T17:25:47;101649.34;;;-0.27;97.23
63654;BME280;49809;47.418;19.080;2022-12-20T17:29:19;101650.28;;;-0.28;97.61
63654;BME280;49809;47.418;19.080;2022-12-20T17:33:26;101645.62;;;-0.25;97.48
63654;BME280;49809;47.418;19.080;2022-12-20T17:37:04;101644.44;;;-0.30;97.99
63654;BME280;49809;47.418;19.080;2022-12-20T17:40:47;101642.94;;;-0.33;98.02
63654;BME280;49809;47.418;19.080;2022-12-20T17:44:25;101653.66;;;-0.36;98.67
63654;BME280;49809;47.418;19.080;2022-12-20T17:48:05;101652.75;;;-0.27;98.56
63654;BME280;49809;47.418;19.080;2022-12-20T17:51:40;101648.38;;;-0.26;98.70
63654;BME280;49809;47.418;19.080;2022-12-20T17:55:26;101658.09;;;-0.28;98.98
63654;BME280;49809;47.418;19.080;2022-12-20T17:59:33;101652.00;;;-0.37;99.33
63654;BME280;49809;47.418;19.080;2022-12-20T18:03:10;101649.12;;;-0.34;99.35
63654;BME280;49809;47.418;19.080;2022-12-20T18:07:10;101647.31;;;-0.33;99.54
63654;BME280;49809;47.418;19.080;2022-12-20T18:10:12;101635.94;;;-0.32;99.29
63654;BME280;49809;47.418;19.080;2022-12-20T18:13:57;101630.09;;;-0.34;99.54
63654;BME280;49809;47.418;19.080;2022-12-20T18:17:22;101621.91;;;-0.39;100.00
63654;BME280;49809;47.418;19.080;2022-12-20T18:21:11;101631.13;;;-0.45;100.00
63654;BME280;49809;47.418;19.080;2022-12-20T18:24:42;101623.66;;;-0.58;100.00
63654;BME280;49809;47.418;19.080;2022-12-20T18:28:48;101610.66;;;-0.58;100.00
63654;BME280;49809;47.418;19.080;2022-12-20T18:32:40;101608.09;;;-0.67;100.00
63654;BME280;49809;47.418;19.080;2022-12-20T18:36:44;101596.09;;;-0.68;100.00
63654;BME280;49809;47.418;19.080;2022-12-20T18:40:48;101603.97;;;-0.78;100.00
63654;BME280;49809;47.418;19.080;2022-12-20T18:44:25;101591.59;;;-0.76;100.00
63654;BME280;49809;47.418;19.080;2022-12-20T18:48:03;101584.38;;;-0.82;100.00
63654;BME280;49809;47.418;19.080;2022-12-20T18:51:41;101585.94;;;-0.89;100.00
63654;BME280;49809;47.418;19.080;2022-12-20T18:55:10;101586.78;;;-0.89;100.00
63654;BME280;49809;47.418;19.080;2022-12-20T18:59:24;101582.22;;;-0.87;100.00
63654;BME280;49809;47.418;19.080;2022-12-20T19:03:06;101586.81;;;-0.98;100.00
63654;BME280;49809;47.418;19.080;2022-12-20T19:06:46;101577.97;;;-1.05;100.00
63654;BME280;49809;47.418;19.080;2022-12-20T19:10:21;101574.47;;;-0.96;100.00
63654;BME280;49809;47.418;19.080;2022-12-20T19:13:55;101577.25;;;-0.98;100.00
63654;BME280;49809;47.418;19.080;2022-12-20T19:17:35;101573.31;;;-1.11;100.00
63654;BME280;49809;47.418;19.080;2022-12-20T19:25:06;101569.56;;;-1.17;100.00
63654;BME280;49809;47.418;19.080;2022-12-20T19:32:57;101556.22;;;-1.04;100.00
63654;BME280;49809;47.418;19.080;2022-12-20T19:40:53;101559.88;;;-0.97;100.00
63654;BME280;49809;47.418;19.080;2022-12-20T19:44:42;101560.44;;;-1.03;100.00
63654;BME280;49809;47.418;19.080;2022-12-20T19:48:07;101556.78;;;-1.10;100.00
63654;BME280;49809;47.418;19.080;2022-12-20T19:51:32;101567.59;;;-1.15;100.00
63654;BME280;49809;47.418;19.080;2022-12-20T19:55:04;101568.72;;;-1.17;100.00
63654;BME280;49809;47.418;19.080;2022-12-20T19:58:37;101572.19;;;-0.99;100.00
63654;BME280;49809;47.418;19.080;2022-12-20T20:02:20;101566.16;;;-1.00;100.00
63654;BME280;49809;47.418;19.080;2022-12-20T20:05:55;101563.69;;;-1.01;100.00
63654;BME280;49809;47.418;19.080;2022-12-20T20:09:46;101576.88;;;-1.03;100.00
63654;BME280;49809;47.418;19.080;2022-12-20T20:13:24;101580.16;;;-1.10;100.00
63654;BME280;49809;47.418;19.080;2022-12-20T20:17:22;101569.28;;;-0.96;100.00
63654;BME280;49809;47.418;19.080;2022-12-20T20:20:44;101561.00;;;-0.82;100.00
63654;BME280;49809;47.418;19.080;2022-12-20T20:24:10;101572.09;;;-0.62;100.00
63654;BME280;49809;47.418;19.080;2022-12-20T20:27:55;101573.13;;;-0.73;100.00
63654;BME280;49809;47.418;19.080;2022-12-20T20:31:25;101566.13;;;-0.72;100.00
63654;BME280;49809;47.418;19.080;2022-12-20T20:34:58;101570.00;;;-0.76;100.00
63654;BME280;49809;47.418;19.080;2022-12-20T20:38:35;101566.00;;;-0.71;100.00
63654;BME280;49809;47.418;19.080;2022-12-20T20:42:01;101559.16;;;-0.72;100.00
63654;BME280;49809;47.418;19.080;2022-12-20T20:45:22;101553.75;;;-0.78;100.00
63654;BME280;49809;47.418;19.080;2022-12-20T20:48:57;101552.09;;;-0.97;100.00
63654;BME280;49809;47.418;19.080;2022-12-20T20:52:55;101551.78;;;-0.94;100.00
63654;BME280;49809;47.418;19.080;2022-12-20T20:56:30;101543.84;;;-0.93;100.00
63654;BME280;49809;47.418;19.080;2022-12-20T20:59:58;101546.38;;;-1.10;100.00
63654;BME280;49809;47.418;19.080;2022-12-20T21:03:40;101550.62;;;-1.09;100.00
63654;BME280;49809;47.418;19.080;2022-12-20T21:07:10;101535.34;;;-1.12;100.00
63654;BME280;49809;47.418;19.080;2022-12-20T21:10:50;101538.69;;;-1.29;100.00